METAR Data
IDs: Format: Raw Decoded Include TAF

Data at: 1537 UTC 27 Nov 2021

SAEZ 271500Z 07011KT CAVOK 26/15 Q1011 NOSIG RMK PP000